Portland, Oregon
Traffic Map
Current Weather Conditions
Portland, Oregon
Overcast Light Rain
Overcast
54°
Feels Like: 54°
Wind Chill: 54° Ceiling: 5500
Heat Index: 54° Visibility: 10mi
Dew Point: 45° Wind: 10mph
Humidity: 72% Direction: 190° (S)
Pressure: 30.13in Gusts: 0mph
Raw Report DataKPDX 161853Z 19009KT 10SM -RA FEW020 SCT045 OVC055 12/07 A3013 RMK AO2 RAB52 SLP203 P0000 T01220072
Traffic Incident Summary
Active as of:
Severity:
Category:
InformationThere was an issue retrieving the traffic information for this location. Please try a different location or try again shortly.
Advertisements
At Last! Intellicast now available for iPhone and Android